sensor_id;sensor_type;location;lat;lon;timestamp;temperature;humidity
9971;DHT22;5026;51.494;11.974;2023-07-20T00:00:14;16.70;99.90
9971;DHT22;5026;51.494;11.974;2023-07-20T00:02:43;16.70;99.90
9971;DHT22;5026;51.494;11.974;2023-07-20T00:05:10;16.70;99.90
9971;DHT22;5026;51.494;11.974;2023-07-20T00:07:36;16.70;99.90
9971;DHT22;5026;51.494;11.974;2023-07-20T00:10:04;16.80;99.90
9971;DHT22;5026;51.494;11.974;2023-07-20T00:12:31;16.90;99.90
9971;DHT22;5026;51.494;11.974;2023-07-20T00:14:58;16.90;99.90
9971;DHT22;5026;51.494;11.974;2023-07-20T00:17:25;16.90;99.90
9971;DHT22;5026;51.494;11.974;2023-07-20T00:19:53;16.90;99.90
9971;DHT22;5026;51.494;11.974;2023-07-20T00:24:47;17.00;99.90
9971;DHT22;5026;51.494;11.974;2023-07-20T00:27:15;17.00;99.90
9971;DHT22;5026;51.494;11.974;2023-07-20T00:32:09;17.10;99.90
9971;DHT22;5026;51.494;11.974;2023-07-20T00:37:04;17.10;99.90
9971;DHT22;5026;51.494;11.974;2023-07-20T00:39:32;17.10;99.90
9971;DHT22;5026;51.494;11.974;2023-07-20T00:41:59;17.10;99.90
9971;DHT22;5026;51.494;11.974;2023-07-20T00:44:25;17.20;99.90
9971;DHT22;5026;51.494;11.974;2023-07-20T00:46:52;17.20;99.90
9971;DHT22;5026;51.494;11.974;2023-07-20T00:49:19;17.10;99.90
9971;DHT22;5026;51.494;11.974;2023-07-20T00:51:48;17.10;99.90
9971;DHT22;5026;51.494;11.974;2023-07-20T00:54:16;17.10;99.90
9971;DHT22;5026;51.494;11.974;2023-07-20T00:56:44;17.10;99.90
9971;DHT22;5026;51.494;11.974;2023-07-20T00:59:11;17.10;99.90
9971;DHT22;5026;51.494;11.974;2023-07-20T01:01:38;17.10;99.90
9971;DHT22;5026;51.494;11.974;2023-07-20T01:04:05;17.10;99.90
9971;DHT22;5026;51.494;11.974;2023-07-20T01:06:41;17.10;99.90
9971;DHT22;5026;51.494;11.974;2023-07-20T01:09:13;17.10;99.90
9971;DHT22;5026;51.494;11.974;2023-07-20T01:11:54;17.10;99.90
9971;DHT22;5026;51.494;11.974;2023-07-20T01:14:23;17.10;99.90
9971;DHT22;5026;51.494;11.974;2023-07-20T01:16:50;17.10;99.90
9971;DHT22;5026;51.494;11.974;2023-07-20T01:19:18;17.00;99.90
9971;DHT22;5026;51.494;11.974;2023-07-20T01:21:50;17.00;99.90
9971;DHT22;5026;51.494;11.974;2023-07-20T01:24:58;17.00;99.90
9971;DHT22;5026;51.494;11.974;2023-07-20T01:30:55;16.90;99.90
9971;DHT22;5026;51.494;11.974;2023-07-20T01:33:28;16.90;99.90
9971;DHT22;5026;51.494;11.974;2023-07-20T01:35:58;16.90;99.90
9971;DHT22;5026;51.494;11.974;2023-07-20T01:40:54;17.00;99.90
9971;DHT22;5026;51.494;11.974;2023-07-20T01:43:21;17.00;99.90
9971;DHT22;5026;51.494;11.974;2023-07-20T01:45:49;16.90;99.90
9971;DHT22;5026;51.494;11.974;2023-07-20T01:48:16;16.90;99.90
9971;DHT22;5026;51.494;11.974;2023-07-20T01:50:44;16.90;99.90
9971;DHT22;5026;51.494;11.974;2023-07-20T01:53:11;16.90;99.90
9971;DHT22;5026;51.494;11.974;2023-07-20T01:55:38;17.00;99.90
9971;DHT22;5026;51.494;11.974;2023-07-20T01:58:05;17.00;99.90
9971;DHT22;5026;51.494;11.974;2023-07-20T02:00:32;17.00;99.90
9971;DHT22;5026;51.494;11.974;2023-07-20T02:02:59;17.00;99.90
9971;DHT22;5026;51.494;11.974;2023-07-20T02:05:26;17.00;99.90
9971;DHT22;5026;51.494;11.974;2023-07-20T02:07:54;17.00;99.90
9971;DHT22;5026;51.494;11.974;2023-07-20T02:10:21;17.00;99.90
9971;DHT22;5026;51.494;11.974;2023-07-20T02:12:48;17.00;99.90
9971;DHT22;5026;51.494;11.974;2023-07-20T02:15:15;17.00;99.90
9971;DHT22;5026;51.494;11.974;2023-07-20T02:17:44;17.00;99.90
9971;DHT22;5026;51.494;11.974;2023-07-20T02:22:39;17.10;99.90
9971;DHT22;5026;51.494;11.974;2023-07-20T02:25:09;17.00;99.90
9971;DHT22;5026;51.494;11.974;2023-07-20T02:27:37;17.10;99.90
9971;DHT22;5026;51.494;11.974;2023-07-20T02:30:05;17.10;99.90
9971;DHT22;5026;51.494;11.974;2023-07-20T02:32:32;17.10;99.90
9971;DHT22;5026;51.494;11.974;2023-07-20T02:34:59;17.10;99.90
9971;DHT22;5026;51.494;11.974;2023-07-20T02:37:26;17.00;99.90
9971;DHT22;5026;51.494;11.974;2023-07-20T02:39:53;17.00;99.90
9971;DHT22;5026;51.494;11.974;2023-07-20T02:42:21;16.90;99.90
9971;DHT22;5026;51.494;11.974;2023-07-20T02:44:50;16.90;99.90
9971;DHT22;5026;51.494;11.974;2023-07-20T02:49:44;17.00;99.90
9971;DHT22;5026;51.494;11.974;2023-07-20T02:57:05;16.90;99.90
9971;DHT22;5026;51.494;11.974;2023-07-20T02:59:34;17.00;99.90
9971;DHT22;5026;51.494;11.974;2023-07-20T03:02:00;17.00;99.90
9971;DHT22;5026;51.494;11.974;2023-07-20T03:04:27;17.00;99.90
9971;DHT22;5026;51.494;11.974;2023-07-20T03:06:54;17.00;99.90
9971;DHT22;5026;51.494;11.974;2023-07-20T03:09:21;16.90;99.90
9971;DHT22;5026;51.494;11.974;2023-07-20T03:11:49;16.90;99.90
9971;DHT22;5026;51.494;11.974;2023-07-20T03:16:45;16.90;99.90
9971;DHT22;5026;51.494;11.974;2023-07-20T03:19:12;16.90;99.90
9971;DHT22;5026;51.494;11.974;2023-07-20T03:21:38;16.90;99.90
9971;DHT22;5026;51.494;11.974;2023-07-20T03:24:06;16.80;99.90
9971;DHT22;5026;51.494;11.974;2023-07-20T03:26:34;16.70;99.90
9971;DHT22;5026;51.494;11.974;2023-07-20T03:29:01;16.70;99.90
9971;DHT22;5026;51.494;11.974;2023-07-20T03:31:28;16.70;99.90
9971;DHT22;5026;51.494;11.974;2023-07-20T03:33:56;16.70;99.90
9971;DHT22;5026;51.494;11.974;2023-07-20T03:36:23;16.70;99.90
9971;DHT22;5026;51.494;11.974;2023-07-20T03:41:17;16.70;99.90
9971;DHT22;5026;51.494;11.974;2023-07-20T03:46:12;16.60;99.90
9971;DHT22;5026;51.494;11.974;2023-07-20T03:48:39;16.70;99.90
9971;DHT22;5026;51.494;11.974;2023-07-20T03:51:08;16.70;99.90
9971;DHT22;5026;51.494;11.974;2023-07-20T03:53:35;16.80;99.90
9971;DHT22;5026;51.494;11.974;2023-07-20T03:56:02;16.80;99.90
9971;DHT22;5026;51.494;11.974;2023-07-20T03:58:28;16.90;99.90
9971;DHT22;5026;51.494;11.974;2023-07-20T04:00:57;16.90;99.90
9971;DHT22;5026;51.494;11.974;2023-07-20T04:03:24;16.90;99.90
9971;DHT22;5026;51.494;11.974;2023-07-20T04:05:53;16.90;99.90
9971;DHT22;5026;51.494;11.974;2023-07-20T04:08:23;16.90;99.90
9971;DHT22;5026;51.494;11.974;2023-07-20T04:10:50;16.90;99.90
9971;DHT22;5026;51.494;11.974;2023-07-20T04:13:17;17.00;99.90
9971;DHT22;5026;51.494;11.974;2023-07-20T04:15:44;17.00;99.90
9971;DHT22;5026;51.494;11.974;2023-07-20T04:18:11;17.00;99.90
9971;DHT22;5026;51.494;11.974;2023-07-20T04:20:38;17.10;99.90
9971;DHT22;5026;51.494;11.974;2023-07-20T04:25:34;17.20;99.90
9971;DHT22;5026;51.494;11.974;2023-07-20T04:28:04;17.20;99.90
9971;DHT22;5026;51.494;11.974;2023-07-20T04:33:02;17.40;99.90
9971;DHT22;5026;51.494;11.974;2023-07-20T04:35:48;17.50;99.90
9971;DHT22;5026;51.494;11.974;2023-07-20T04:38:15;17.50;99.90
9971;DHT22;5026;51.494;11.974;2023-07-20T04:40:45;17.60;99.90
9971;DHT22;5026;51.494;11.974;2023-07-20T04:45:39;17.80;99.90
9971;DHT22;5026;51.494;11.974;2023-07-20T04:48:09;17.80;99.90
9971;DHT22;5026;51.494;11.974;2023-07-20T04:50:36;17.90;99.90
9971;DHT22;5026;51.494;11.974;2023-07-20T04:53:03;17.90;99.90
9971;DHT22;5026;51.494;11.974;2023-07-20T04:58:00;17.90;99.90
9971;DHT22;5026;51.494;11.974;2023-07-20T05:00:27;18.00;99.90
9971;DHT22;5026;51.494;11.974;2023-07-20T05:02:54;18.00;99.90
9971;DHT22;5026;51.494;11.974;2023-07-20T05:05:21;18.00;99.90
9971;DHT22;5026;51.494;11.974;2023-07-20T05:07:48;18.20;99.90
9971;DHT22;5026;51.494;11.974;2023-07-20T05:10:15;18.20;99.90
9971;DHT22;5026;51.494;11.974;2023-07-20T05:12:42;18.30;99.90
9971;DHT22;5026;51.494;11.974;2023-07-20T05:15:11;18.30;99.90
9971;DHT22;5026;51.494;11.974;2023-07-20T05:17:38;18.40;99.90
9971;DHT22;5026;51.494;11.974;2023-07-20T05:20:06;18.40;99.90
9971;DHT22;5026;51.494;11.974;2023-07-20T05:22:35;18.50;99.90
9971;DHT22;5026;51.494;11.974;2023-07-20T05:25:06;18.70;99.90
9971;DHT22;5026;51.494;11.974;2023-07-20T05:27:33;18.80;99.90
9971;DHT22;5026;51.494;11.974;2023-07-20T05:32:29;19.20;99.90
9971;DHT22;5026;51.494;11.974;2023-07-20T05:34:56;19.50;99.90
9971;DHT22;5026;51.494;11.974;2023-07-20T05:37:23;19.70;99.90
9971;DHT22;5026;51.494;11.974;2023-07-20T05:42:17;20.00;99.90
9971;DHT22;5026;51.494;11.974;2023-07-20T05:44:43;19.90;99.90
9971;DHT22;5026;51.494;11.974;2023-07-20T05:47:10;19.80;99.90
9971;DHT22;5026;51.494;11.974;2023-07-20T05:49:38;19.70;99.90
9971;DHT22;5026;51.494;11.974;2023-07-20T05:52:06;19.50;99.90
9971;DHT22;5026;51.494;11.974;2023-07-20T05:57:00;19.40;99.90
9971;DHT22;5026;51.494;11.974;2023-07-20T05:59:27;19.30;99.90
9971;DHT22;5026;51.494;11.974;2023-07-20T06:01:55;20.00;99.90
9971;DHT22;5026;51.494;11.974;2023-07-20T06:04:22;21.50;99.90
9971;DHT22;5026;51.494;11.974;2023-07-20T06:06:51;21.90;99.90
9971;DHT22;5026;51.494;11.974;2023-07-20T06:09:18;22.60;99.90
9971;DHT22;5026;51.494;11.974;2023-07-20T06:11:45;22.90;99.90
9971;DHT22;5026;51.494;11.974;2023-07-20T06:14:12;22.80;99.90
9971;DHT22;5026;51.494;11.974;2023-07-20T06:16:39;22.50;99.90
9971;DHT22;5026;51.494;11.974;2023-07-20T06:19:06;22.10;99.90
9971;DHT22;5026;51.494;11.974;2023-07-20T06:21:33;21.70;99.90
9971;DHT22;5026;51.494;11.974;2023-07-20T06:24:01;21.30;99.90
9971;DHT22;5026;51.494;11.974;2023-07-20T06:26:28;21.20;99.90
9971;DHT22;5026;51.494;11.974;2023-07-20T06:28:55;21.20;99.90
9971;DHT22;5026;51.494;11.974;2023-07-20T06:31:22;21.30;99.90
9971;DHT22;5026;51.494;11.974;2023-07-20T06:33:49;21.40;99.90
9971;DHT22;5026;51.494;11.974;2023-07-20T06:36:17;22.50;99.90
9971;DHT22;5026;51.494;11.974;2023-07-20T06:38:44;23.00;99.90
9971;DHT22;5026;51.494;11.974;2023-07-20T06:41:12;23.00;99.90
9971;DHT22;5026;51.494;11.974;2023-07-20T06:43:39;22.80;99.90
9971;DHT22;5026;51.494;11.974;2023-07-20T06:46:06;22.70;99.90
9971;DHT22;5026;51.494;11.974;2023-07-20T06:48:33;22.60;99.90
9971;DHT22;5026;51.494;11.974;2023-07-20T06:51:00;22.30;99.90
9971;DHT22;5026;51.494;11.974;2023-07-20T06:55:54;21.90;99.80
9971;DHT22;5026;51.494;11.974;2023-07-20T06:58:24;22.00;99.90
9971;DHT22;5026;51.494;11.974;2023-07-20T07:00:51;23.40;99.90
9971;DHT22;5026;51.494;11.974;2023-07-20T07:03:18;25.30;98.20
9971;DHT22;5026;51.494;11.974;2023-07-20T07:05:45;25.30;97.20
9971;DHT22;5026;51.494;11.974;2023-07-20T07:08:12;24.80;96.60
9971;DHT22;5026;51.494;11.974;2023-07-20T07:10:39;24.40;96.70
9971;DHT22;5026;51.494;11.974;2023-07-20T07:13:06;23.80;97.00
9971;DHT22;5026;51.494;11.974;2023-07-20T07:15:36;25.80;96.30
9971;DHT22;5026;51.494;11.974;2023-07-20T07:18:03;27.80;95.70
9971;DHT22;5026;51.494;11.974;2023-07-20T07:20:30;28.00;95.80
9971;DHT22;5026;51.494;11.974;2023-07-20T07:22:56;34.30;77.10
9971;DHT22;5026;51.494;11.974;2023-07-20T07:25:23;33.50;72.70
9971;DHT22;5026;51.494;11.974;2023-07-20T07:30:19;37.10;69.70
9971;DHT22;5026;51.494;11.974;2023-07-20T07:32:47;36.60;65.00
9971;DHT22;5026;51.494;11.974;2023-07-20T07:35:14;35.70;63.30
9971;DHT22;5026;51.494;11.974;2023-07-20T07:37:41;31.20;66.10
9971;DHT22;5026;51.494;11.974;2023-07-20T07:40:09;30.00;67.90
9971;DHT22;5026;51.494;11.974;2023-07-20T07:42:36;28.40;69.80
9971;DHT22;5026;51.494;11.974;2023-07-20T07:45:03;27.60;71.40
9971;DHT22;5026;51.494;11.974;2023-07-20T07:47:30;27.40;72.90
9971;DHT22;5026;51.494;11.974;2023-07-20T07:49:58;27.40;73.40
9971;DHT22;5026;51.494;11.974;2023-07-20T07:52:25;27.80;73.30
9971;DHT22;5026;51.494;11.974;2023-07-20T07:54:52;28.20;72.80
9971;DHT22;5026;51.494;11.974;2023-07-20T07:57:19;27.40;73.30
9971;DHT22;5026;51.494;11.974;2023-07-20T07:59:46;26.60;74.00
9971;DHT22;5026;51.494;11.974;2023-07-20T08:02:12;25.80;76.20
9971;DHT22;5026;51.494;11.974;2023-07-20T08:04:40;25.40;77.50
9971;DHT22;5026;51.494;11.974;2023-07-20T08:07:08;25.10;77.80
9971;DHT22;5026;51.494;11.974;2023-07-20T08:12:02;30.50;75.20
9971;DHT22;5026;51.494;11.974;2023-07-20T08:14:30;32.80;70.90
9971;DHT22;5026;51.494;11.974;2023-07-20T08:16:57;32.40;67.70
9971;DHT22;5026;51.494;11.974;2023-07-20T08:19:24;31.80;67.90
9971;DHT22;5026;51.494;11.974;2023-07-20T08:21:51;30.50;67.60
9971;DHT22;5026;51.494;11.974;2023-07-20T08:24:19;29.60;68.90
9971;DHT22;5026;51.494;11.974;2023-07-20T08:29:13;28.50;70.00
9971;DHT22;5026;51.494;11.974;2023-07-20T08:31:40;28.10;70.70
9971;DHT22;5026;51.494;11.974;2023-07-20T08:34:07;27.70;71.40
9971;DHT22;5026;51.494;11.974;2023-07-20T08:36:34;27.30;72.00
9971;DHT22;5026;51.494;11.974;2023-07-20T08:39:02;26.00;73.70
9971;DHT22;5026;51.494;11.974;2023-07-20T08:41:30;26.00;75.00
9971;DHT22;5026;51.494;11.974;2023-07-20T08:43:59;25.80;75.30
9971;DHT22;5026;51.494;11.974;2023-07-20T08:46:26;25.20;75.60
9971;DHT22;5026;51.494;11.974;2023-07-20T08:48:55;24.90;75.90
9971;DHT22;5026;51.494;11.974;2023-07-20T08:51:23;23.50;78.30
9971;DHT22;5026;51.494;11.974;2023-07-20T08:53:52;23.30;81.40
9971;DHT22;5026;51.494;11.974;2023-07-20T08:56:20;22.90;83.40
9971;DHT22;5026;51.494;11.974;2023-07-20T08:58:49;21.90;86.10
9971;DHT22;5026;51.494;11.974;2023-07-20T09:01:17;21.30;91.20
9971;DHT22;5026;51.494;11.974;2023-07-20T09:03:45;20.90;95.10
9971;DHT22;5026;51.494;11.974;2023-07-20T09:06:12;20.90;96.80
9971;DHT22;5026;51.494;11.974;2023-07-20T09:08:39;20.70;98.80
9971;DHT22;5026;51.494;11.974;2023-07-20T09:11:06;20.60;99.80
9971;DHT22;5026;51.494;11.974;2023-07-20T09:13:34;19.20;99.90
9971;DHT22;5026;51.494;11.974;2023-07-20T09:16:03;19.20;99.90
9971;DHT22;5026;51.494;11.974;2023-07-20T09:18:31;19.60;99.90
9971;DHT22;5026;51.494;11.974;2023-07-20T09:23:30;19.80;99.90
9971;DHT22;5026;51.494;11.974;2023-07-20T09:25:58;20.00;99.90
9971;DHT22;5026;51.494;11.974;2023-07-20T09:28:25;19.80;99.90
9971;DHT22;5026;51.494;11.974;2023-07-20T09:30:54;19.40;99.90
9971;DHT22;5026;51.494;11.974;2023-07-20T09:33:24;19.50;99.90
9971;DHT22;5026;51.494;11.974;2023-07-20T09:35:51;19.50;99.90
9971;DHT22;5026;51.494;11.974;2023-07-20T09:38:18;19.60;99.90
9971;DHT22;5026;51.494;11.974;2023-07-20T09:43:12;20.20;99.90
9971;DHT22;5026;51.494;11.974;2023-07-20T09:45:42;20.70;99.90
9971;DHT22;5026;51.494;11.974;2023-07-20T09:48:10;21.20;99.90
9971;DHT22;5026;51.494;11.974;2023-07-20T09:50:48;22.10;99.90
9971;DHT22;5026;51.494;11.974;2023-07-20T09:55:44;22.70;99.90
9971;DHT22;5026;51.494;11.974;2023-07-20T09:58:12;23.20;99.90
9971;DHT22;5026;51.494;11.974;2023-07-20T10:00:40;23.70;99.90
9971;DHT22;5026;51.494;11.974;2023-07-20T10:03:11;24.10;99.90
9971;DHT22;5026;51.494;11.974;2023-07-20T10:05:42;24.20;99.90
9971;DHT22;5026;51.494;11.974;2023-07-20T10:08:12;24.60;99.90
9971;DHT22;5026;51.494;11.974;2023-07-20T10:10:41;24.80;99.60
9971;DHT22;5026;51.494;11.974;2023-07-20T10:13:11;25.00;98.90
9971;DHT22;5026;51.494;11.974;2023-07-20T10:15:45;25.00;99.20
9971;DHT22;5026;51.494;11.974;2023-07-20T10:18:16;25.70;98.10
9971;DHT22;5026;51.494;11.974;2023-07-20T10:20:46;25.60;97.90
9971;DHT22;5026;51.494;11.974;2023-07-20T10:23:15;25.70;98.10
9971;DHT22;5026;51.494;11.974;2023-07-20T10:25:42;25.50;97.20
9971;DHT22;5026;51.494;11.974;2023-07-20T10:28:11;25.20;97.20
9971;DHT22;5026;51.494;11.974;2023-07-20T10:30:39;24.80;97.80
9971;DHT22;5026;51.494;11.974;2023-07-20T10:33:06;24.60;98.10
9971;DHT22;5026;51.494;11.974;2023-07-20T10:35:51;24.20;98.50
9971;DHT22;5026;51.494;11.974;2023-07-20T10:38:20;24.20;98.40
9971;DHT22;5026;51.494;11.974;2023-07-20T10:41:04;24.20;98.30
9971;DHT22;5026;51.494;11.974;2023-07-20T10:43:42;24.00;98.50
9971;DHT22;5026;51.494;11.974;2023-07-20T10:46:11;24.10;98.50
9971;DHT22;5026;51.494;11.974;2023-07-20T10:48:59;24.10;98.90
9971;DHT22;5026;51.494;11.974;2023-07-20T10:51:26;24.00;99.00
9971;DHT22;5026;51.494;11.974;2023-07-20T10:53:55;23.80;98.80
9971;DHT22;5026;51.494;11.974;2023-07-20T10:56:26;24.00;98.60
9971;DHT22;5026;51.494;11.974;2023-07-20T10:58:57;24.20;98.60
9971;DHT22;5026;51.494;11.974;2023-07-20T11:01:28;24.10;98.50
9971;DHT22;5026;51.494;11.974;2023-07-20T11:03:58;23.30;98.00
9971;DHT22;5026;51.494;11.974;2023-07-20T11:06:33;24.20;98.10
9971;DHT22;5026;51.494;11.974;2023-07-20T11:09:09;24.40;97.90
9971;DHT22;5026;51.494;11.974;2023-07-20T11:11:40;24.50;97.40
9971;DHT22;5026;51.494;11.974;2023-07-20T11:14:09;24.60;97.00
9971;DHT22;5026;51.494;11.974;2023-07-20T11:16:41;24.60;97.10
9971;DHT22;5026;51.494;11.974;2023-07-20T11:19:16;24.30;96.80
9971;DHT22;5026;51.494;11.974;2023-07-20T11:21:44;24.20;96.00
9971;DHT22;5026;51.494;11.974;2023-07-20T11:24:13;24.60;96.20
9971;DHT22;5026;51.494;11.974;2023-07-20T11:26:41;25.10;95.70
9971;DHT22;5026;51.494;11.974;2023-07-20T11:29:08;25.50;94.80
9971;DHT22;5026;51.494;11.974;2023-07-20T11:31:36;25.30;94.40
9971;DHT22;5026;51.494;11.974;2023-07-20T11:34:03;25.50;94.20
9971;DHT22;5026;51.494;11.974;2023-07-20T11:36:30;25.60;94.20
9971;DHT22;5026;51.494;11.974;2023-07-20T11:41:26;25.40;93.50
9971;DHT22;5026;51.494;11.974;2023-07-20T11:43:54;25.70;93.40
9971;DHT22;5026;51.494;11.974;2023-07-20T11:46:21;25.90;93.20
9971;DHT22;5026;51.494;11.974;2023-07-20T11:48:48;25.80;92.50
9971;DHT22;5026;51.494;11.974;2023-07-20T11:51:16;25.70;92.60
9971;DHT22;5026;51.494;11.974;2023-07-20T11:53:44;25.70;92.00
9971;DHT22;5026;51.494;11.974;2023-07-20T11:56:11;25.60;91.70
9971;DHT22;5026;51.494;11.974;2023-07-20T11:58:43;25.70;91.90
9971;DHT22;5026;51.494;11.974;2023-07-20T12:01:12;25.80;91.80
9971;DHT22;5026;51.494;11.974;2023-07-20T12:03:39;25.60;91.30
9971;DHT22;5026;51.494;11.974;2023-07-20T12:06:07;25.50;92.00
9971;DHT22;5026;51.494;11.974;2023-07-20T12:08:34;25.50;92.30
9971;DHT22;5026;51.494;11.974;2023-07-20T12:11:01;25.30;92.50
9971;DHT22;5026;51.494;11.974;2023-07-20T12:13:36;25.30;92.60
9971;DHT22;5026;51.494;11.974;2023-07-20T12:16:09;25.70;92.20
9971;DHT22;5026;51.494;11.974;2023-07-20T12:18:37;24.90;92.60
9971;DHT22;5026;51.494;11.974;2023-07-20T12:21:06;24.40;93.00
9971;DHT22;5026;51.494;11.974;2023-07-20T12:23:38;24.40;93.60
9971;DHT22;5026;51.494;11.974;2023-07-20T12:26:08;24.40;92.60
9971;DHT22;5026;51.494;11.974;2023-07-20T12:28:39;24.00;92.50
9971;DHT22;5026;51.494;11.974;2023-07-20T12:31:08;24.20;92.60
9971;DHT22;5026;51.494;11.974;2023-07-20T12:33:36;24.10;92.40
9971;DHT22;5026;51.494;11.974;2023-07-20T12:36:04;24.10;92.80
9971;DHT22;5026;51.494;11.974;2023-07-20T12:38:31;23.70;92.40
9971;DHT22;5026;51.494;11.974;2023-07-20T12:41:00;23.40;92.10
9971;DHT22;5026;51.494;11.974;2023-07-20T12:43:27;23.20;92.00
9971;DHT22;5026;51.494;11.974;2023-07-20T12:45:55;23.40;92.30
9971;DHT22;5026;51.494;11.974;2023-07-20T12:48:23;23.70;92.20
9971;DHT22;5026;51.494;11.974;2023-07-20T12:53:17;24.00;91.70
9971;DHT22;5026;51.494;11.974;2023-07-20T12:58:12;24.30;91.30
9971;DHT22;5026;51.494;11.974;2023-07-20T13:05:35;24.70;90.80
9971;DHT22;5026;51.494;11.974;2023-07-20T13:08:02;24.80;90.60
9971;DHT22;5026;51.494;11.974;2023-07-20T13:10:31;25.00;90.60
9971;DHT22;5026;51.494;11.974;2023-07-20T13:12:57;25.20;90.20
9971;DHT22;5026;51.494;11.974;2023-07-20T13:15:29;25.30;90.00
9971;DHT22;5026;51.494;11.974;2023-07-20T13:17:57;25.40;89.30
9971;DHT22;5026;51.494;11.974;2023-07-20T13:20:26;25.20;88.10
9971;DHT22;5026;51.494;11.974;2023-07-20T13:22:54;25.10;88.50
9971;DHT22;5026;51.494;11.974;2023-07-20T13:25:21;24.90;87.60
9971;DHT22;5026;51.494;11.974;2023-07-20T13:27:48;24.60;89.10
9971;DHT22;5026;51.494;11.974;2023-07-20T13:30:15;24.60;88.20
9971;DHT22;5026;51.494;11.974;2023-07-20T13:35:10;24.40;84.30
9971;DHT22;5026;51.494;11.974;2023-07-20T13:37:38;24.30;83.30
9971;DHT22;5026;51.494;11.974;2023-07-20T13:40:07;24.10;84.60
9971;DHT22;5026;51.494;11.974;2023-07-20T13:45:06;24.00;82.10
9971;DHT22;5026;51.494;11.974;2023-07-20T13:47:34;23.90;81.90
9971;DHT22;5026;51.494;11.974;2023-07-20T13:52:28;24.40;81.90
9971;DHT22;5026;51.494;11.974;2023-07-20T13:54:55;24.60;80.50
9971;DHT22;5026;51.494;11.974;2023-07-20T13:57:23;24.90;81.60
9971;DHT22;5026;51.494;11.974;2023-07-20T13:59:50;25.00;80.60
9971;DHT22;5026;51.494;11.974;2023-07-20T14:04:44;24.40;78.10
9971;DHT22;5026;51.494;11.974;2023-07-20T14:09:39;23.70;77.30
9971;DHT22;5026;51.494;11.974;2023-07-20T14:12:06;23.50;77.30
9971;DHT22;5026;51.494;11.974;2023-07-20T14:14:35;23.20;76.00
9971;DHT22;5026;51.494;11.974;2023-07-20T14:17:02;23.00;77.40
9971;DHT22;5026;51.494;11.974;2023-07-20T14:19:29;23.20;78.40
9971;DHT22;5026;51.494;11.974;2023-07-20T14:21:56;23.20;74.90
9971;DHT22;5026;51.494;11.974;2023-07-20T14:24:25;23.20;76.10
9971;DHT22;5026;51.494;11.974;2023-07-20T14:26:52;23.20;77.10
9971;DHT22;5026;51.494;11.974;2023-07-20T14:31:48;23.10;74.60
9971;DHT22;5026;51.494;11.974;2023-07-20T14:34:16;23.10;74.20
9971;DHT22;5026;51.494;11.974;2023-07-20T14:36:44;23.10;74.60
9971;DHT22;5026;51.494;11.974;2023-07-20T14:39:11;22.90;73.40
9971;DHT22;5026;51.494;11.974;2023-07-20T14:41:38;22.80;74.90
9971;DHT22;5026;51.494;11.974;2023-07-20T14:44:05;22.70;74.30
9971;DHT22;5026;51.494;11.974;2023-07-20T14:46:32;22.60;74.70
9971;DHT22;5026;51.494;11.974;2023-07-20T14:49:01;22.70;73.90
9971;DHT22;5026;51.494;11.974;2023-07-20T14:54:09;23.70;73.70
9971;DHT22;5026;51.494;11.974;2023-07-20T14:56:38;23.60;72.60
9971;DHT22;5026;51.494;11.974;2023-07-20T14:59:12;23.50;72.50
9971;DHT22;5026;51.494;11.974;2023-07-20T15:04:08;23.40;72.60
9971;DHT22;5026;51.494;11.974;2023-07-20T15:09:02;23.20;71.20
9971;DHT22;5026;51.494;11.974;2023-07-20T15:13:56;23.00;71.10
9971;DHT22;5026;51.494;11.974;2023-07-20T15:16:24;23.10;71.60
9971;DHT22;5026;51.494;11.974;2023-07-20T15:21:19;23.50;71.90
9971;DHT22;5026;51.494;11.974;2023-07-20T15:23:46;23.70;71.00
9971;DHT22;5026;51.494;11.974;2023-07-20T15:26:13;23.90;70.70
9971;DHT22;5026;51.494;11.974;2023-07-20T15:28:40;23.90;70.70
9971;DHT22;5026;51.494;11.974;2023-07-20T15:31:08;23.90;71.40
9971;DHT22;5026;51.494;11.974;2023-07-20T15:33:34;23.80;70.90
9971;DHT22;5026;51.494;11.974;2023-07-20T15:36:02;23.60;70.60
9971;DHT22;5026;51.494;11.974;2023-07-20T15:38:30;23.40;70.70
9971;DHT22;5026;51.494;11.974;2023-07-20T15:40:57;23.20;70.90
9971;DHT22;5026;51.494;11.974;2023-07-20T15:43:26;23.20;71.00
9971;DHT22;5026;51.494;11.974;2023-07-20T15:46:02;23.10;70.40
9971;DHT22;5026;51.494;11.974;2023-07-20T15:50:59;23.00;70.30
9971;DHT22;5026;51.494;11.974;2023-07-20T15:55:54;23.00;70.40
9971;DHT22;5026;51.494;11.974;2023-07-20T16:00:53;22.60;71.30
9971;DHT22;5026;51.494;11.974;2023-07-20T16:03:21;22.50;71.20
9971;DHT22;5026;51.494;11.974;2023-07-20T16:05:49;22.40;72.00
9971;DHT22;5026;51.494;11.974;2023-07-20T16:10:44;22.50;71.80
9971;DHT22;5026;51.494;11.974;2023-07-20T16:13:12;22.40;71.30
9971;DHT22;5026;51.494;11.974;2023-07-20T16:18:06;22.30;71.40
9971;DHT22;5026;51.494;11.974;2023-07-20T16:20:33;22.20;71.70
9971;DHT22;5026;51.494;11.974;2023-07-20T16:23:00;22.30;72.00
9971;DHT22;5026;51.494;11.974;2023-07-20T16:25:31;22.30;70.80
9971;DHT22;5026;51.494;11.974;2023-07-20T16:27:58;22.40;70.20
9971;DHT22;5026;51.494;11.974;2023-07-20T16:30:27;22.50;70.50
9971;DHT22;5026;51.494;11.974;2023-07-20T16:32:54;22.50;70.80
9971;DHT22;5026;51.494;11.974;2023-07-20T16:35:21;22.60;70.40
9971;DHT22;5026;51.494;11.974;2023-07-20T16:40:15;22.70;70.80
9971;DHT22;5026;51.494;11.974;2023-07-20T16:42:42;22.70;70.80
9971;DHT22;5026;51.494;11.974;2023-07-20T16:45:09;22.80;71.10
9971;DHT22;5026;51.494;11.974;2023-07-20T16:47:38;22.80;71.10
9971;DHT22;5026;51.494;11.974;2023-07-20T16:50:06;22.80;70.30
9971;DHT22;5026;51.494;11.974;2023-07-20T16:55:00;22.70;70.60
9971;DHT22;5026;51.494;11.974;2023-07-20T16:59:54;22.60;70.80
9971;DHT22;5026;51.494;11.974;2023-07-20T17:02:21;22.50;70.80
9971;DHT22;5026;51.494;11.974;2023-07-20T17:04:50;22.30;69.90
9971;DHT22;5026;51.494;11.974;2023-07-20T17:09:44;22.10;71.10
9971;DHT22;5026;51.494;11.974;2023-07-20T17:12:11;22.00;71.10
9971;DHT22;5026;51.494;11.974;2023-07-20T17:14:38;21.90;71.30
9971;DHT22;5026;51.494;11.974;2023-07-20T17:17:06;21.90;71.70
9971;DHT22;5026;51.494;11.974;2023-07-20T17:19:33;21.70;72.10
9971;DHT22;5026;51.494;11.974;2023-07-20T17:22:01;21.60;72.10
9971;DHT22;5026;51.494;11.974;2023-07-20T17:26:55;21.40;72.10
9971;DHT22;5026;51.494;11.974;2023-07-20T17:29:22;21.30;72.20
9971;DHT22;5026;51.494;11.974;2023-07-20T17:31:49;21.30;72.60
9971;DHT22;5026;51.494;11.974;2023-07-20T17:34:16;21.30;72.80
9971;DHT22;5026;51.494;11.974;2023-07-20T17:36:43;21.30;73.30
9971;DHT22;5026;51.494;11.974;2023-07-20T17:39:11;21.10;73.00
9971;DHT22;5026;51.494;11.974;2023-07-20T17:41:38;21.20;72.40
9971;DHT22;5026;51.494;11.974;2023-07-20T17:44:05;21.20;72.90
9971;DHT22;5026;51.494;11.974;2023-07-20T17:46:33;21.20;73.70
9971;DHT22;5026;51.494;11.974;2023-07-20T17:49:00;21.10;73.40
9971;DHT22;5026;51.494;11.974;2023-07-20T17:51:28;21.00;73.10
9971;DHT22;5026;51.494;11.974;2023-07-20T17:53:55;21.00;74.00
9971;DHT22;5026;51.494;11.974;2023-07-20T17:56:23;20.90;73.80
9971;DHT22;5026;51.494;11.974;2023-07-20T17:58:51;20.90;73.50